sensor_id;sensor_type;location;lat;lon;timestamp;P1;durP1;ratioP1;P2;durP2;ratioP2
1649;SDS011;822;53.670;8.676;2022-09-21T00:01:15;0.50;;;0.50;;
1649;SDS011;822;53.670;8.676;2022-09-21T00:03:44;0.70;;;0.70;;
1649;SDS011;822;53.670;8.676;2022-09-21T00:06:11;0.70;;;0.70;;
1649;SDS011;822;53.670;8.676;2022-09-21T00:08:38;0.50;;;0.50;;
1649;SDS011;822;53.670;8.676;2022-09-21T00:11:05;0.40;;;0.40;;
1649;SDS011;822;53.670;8.676;2022-09-21T00:13:33;0.60;;;0.60;;
1649;SDS011;822;53.670;8.676;2022-09-21T00:16:04;0.40;;;0.40;;
1649;SDS011;822;53.670;8.676;2022-09-21T00:18:32;0.60;;;0.60;;
1649;SDS011;822;53.670;8.676;2022-09-21T00:20:59;0.77;;;0.77;;
1649;SDS011;822;53.670;8.676;2022-09-21T00:23:26;0.73;;;0.60;;
1649;SDS011;822;53.670;8.676;2022-09-21T00:26:02;0.70;;;0.53;;
1649;SDS011;822;53.670;8.676;2022-09-21T00:28:30;0.40;;;0.40;;
1649;SDS011;822;53.670;8.676;2022-09-21T00:30:59;2.20;;;0.70;;
1649;SDS011;822;53.670;8.676;2022-09-21T00:33:28;0.60;;;0.60;;
1649;SDS011;822;53.670;8.676;2022-09-21T00:35:55;0.70;;;0.70;;
1649;SDS011;822;53.670;8.676;2022-09-21T00:38:27;0.50;;;0.50;;
1649;SDS011;822;53.670;8.676;2022-09-21T00:40:54;0.47;;;0.47;;
1649;SDS011;822;53.670;8.676;2022-09-21T00:43:21;0.67;;;0.67;;
1649;SDS011;822;53.670;8.676;2022-09-21T00:45:47;0.50;;;0.50;;
1649;SDS011;822;53.670;8.676;2022-09-21T00:48:15;0.60;;;0.60;;
1649;SDS011;822;53.670;8.676;2022-09-21T00:50:45;0.50;;;0.50;;
1649;SDS011;822;53.670;8.676;2022-09-21T00:53:16;0.40;;;0.40;;
1649;SDS011;822;53.670;8.676;2022-09-21T00:55:43;0.47;;;0.47;;
1649;SDS011;822;53.670;8.676;2022-09-21T00:58:12;0.40;;;0.40;;
1649;SDS011;822;53.670;8.676;2022-09-21T01:00:44;0.60;;;0.60;;
1649;SDS011;822;53.670;8.676;2022-09-21T01:03:11;0.50;;;0.50;;
1649;SDS011;822;53.670;8.676;2022-09-21T01:05:38;0.40;;;0.40;;
1649;SDS011;822;53.670;8.676;2022-09-21T01:08:06;0.50;;;0.50;;
1649;SDS011;822;53.670;8.676;2022-09-21T01:10:37;0.80;;;0.60;;
1649;SDS011;822;53.670;8.676;2022-09-21T01:13:12;0.50;;;0.50;;
1649;SDS011;822;53.670;8.676;2022-09-21T01:15:48;0.70;;;0.70;;
1649;SDS011;822;53.670;8.676;2022-09-21T01:18:20;0.53;;;0.53;;
1649;SDS011;822;53.670;8.676;2022-09-21T01:23:59;0.70;;;0.70;;
1649;SDS011;822;53.670;8.676;2022-09-21T01:30:04;0.70;;;0.70;;
1649;SDS011;822;53.670;8.676;2022-09-21T01:32:33;0.67;;;0.67;;
1649;SDS011;822;53.670;8.676;2022-09-21T01:35:03;0.63;;;0.63;;
1649;SDS011;822;53.670;8.676;2022-09-21T01:37:33;0.83;;;0.83;;
1649;SDS011;822;53.670;8.676;2022-09-21T01:40:02;0.90;;;0.90;;
1649;SDS011;822;53.670;8.676;2022-09-21T01:42:32;0.57;;;0.57;;
1649;SDS011;822;53.670;8.676;2022-09-21T01:45:00;0.63;;;0.63;;
1649;SDS011;822;53.670;8.676;2022-09-21T01:47:31;0.77;;;0.77;;
1649;SDS011;822;53.670;8.676;2022-09-21T01:49:59;1.30;;;0.83;;
1649;SDS011;822;53.670;8.676;2022-09-21T01:52:28;0.60;;;0.60;;
1649;SDS011;822;53.670;8.676;2022-09-21T01:54:58;0.60;;;0.60;;
1649;SDS011;822;53.670;8.676;2022-09-21T01:57:30;0.60;;;0.60;;
1649;SDS011;822;53.670;8.676;2022-09-21T02:00:01;5.80;;;0.80;;
1649;SDS011;822;53.670;8.676;2022-09-21T02:02:40;0.97;;;0.97;;
1649;SDS011;822;53.670;8.676;2022-09-21T02:05:10;1.20;;;0.60;;
1649;SDS011;822;53.670;8.676;2022-09-21T02:07:37;0.50;;;0.50;;
1649;SDS011;822;53.670;8.676;2022-09-21T02:10:05;1.20;;;1.20;;
1649;SDS011;822;53.670;8.676;2022-09-21T02:12:33;0.80;;;0.80;;
1649;SDS011;822;53.670;8.676;2022-09-21T02:15:00;0.73;;;0.73;;
1649;SDS011;822;53.670;8.676;2022-09-21T02:17:33;0.73;;;0.73;;
1649;SDS011;822;53.670;8.676;2022-09-21T02:20:06;0.77;;;0.77;;
1649;SDS011;822;53.670;8.676;2022-09-21T02:22:38;0.73;;;0.73;;
1649;SDS011;822;53.670;8.676;2022-09-21T02:25:11;0.90;;;0.90;;
1649;SDS011;822;53.670;8.676;2022-09-21T02:27:42;0.60;;;0.60;;
1649;SDS011;822;53.670;8.676;2022-09-21T02:30:14;0.50;;;0.50;;
1649;SDS011;822;53.670;8.676;2022-09-21T02:32:44;0.40;;;0.40;;
1649;SDS011;822;53.670;8.676;2022-09-21T02:35:19;0.40;;;0.40;;
1649;SDS011;822;53.670;8.676;2022-09-21T02:37:57;0.80;;;0.80;;
1649;SDS011;822;53.670;8.676;2022-09-21T02:40:29;0.40;;;0.40;;
1649;SDS011;822;53.670;8.676;2022-09-21T02:42:59;0.33;;;0.33;;
1649;SDS011;822;53.670;8.676;2022-09-21T02:45:29;0.53;;;0.50;;
1649;SDS011;822;53.670;8.676;2022-09-21T02:48:01;1.17;;;0.50;;
1649;SDS011;822;53.670;8.676;2022-09-21T02:50:31;0.53;;;0.53;;
1649;SDS011;822;53.670;8.676;2022-09-21T02:53:01;0.53;;;0.53;;
1649;SDS011;822;53.670;8.676;2022-09-21T02:55:30;0.70;;;0.70;;
1649;SDS011;822;53.670;8.676;2022-09-21T02:57:57;1.10;;;1.10;;
1649;SDS011;822;53.670;8.676;2022-09-21T03:00:24;0.60;;;0.60;;
1649;SDS011;822;53.670;8.676;2022-09-21T03:02:52;1.50;;;1.40;;
1649;SDS011;822;53.670;8.676;2022-09-21T03:05:20;0.70;;;0.70;;
1649;SDS011;822;53.670;8.676;2022-09-21T03:07:47;0.90;;;0.90;;
1649;SDS011;822;53.670;8.676;2022-09-21T03:10:13;2.23;;;1.03;;
1649;SDS011;822;53.670;8.676;2022-09-21T03:12:43;0.73;;;0.73;;
1649;SDS011;822;53.670;8.676;2022-09-21T03:15:10;0.80;;;0.80;;
1649;SDS011;822;53.670;8.676;2022-09-21T03:17:37;1.40;;;1.30;;
1649;SDS011;822;53.670;8.676;2022-09-21T03:20:04;1.30;;;1.20;;
1649;SDS011;822;53.670;8.676;2022-09-21T03:22:33;1.17;;;1.07;;
1649;SDS011;822;53.670;8.676;2022-09-21T03:25:00;0.50;;;0.50;;
1649;SDS011;822;53.670;8.676;2022-09-21T03:27:27;3.03;;;1.83;;
1649;SDS011;822;53.670;8.676;2022-09-21T03:29:54;0.73;;;0.73;;
1649;SDS011;822;53.670;8.676;2022-09-21T03:32:20;0.73;;;0.73;;
1649;SDS011;822;53.670;8.676;2022-09-21T03:34:47;0.80;;;0.80;;
1649;SDS011;822;53.670;8.676;2022-09-21T03:37:14;0.60;;;0.60;;
1649;SDS011;822;53.670;8.676;2022-09-21T03:39:43;0.87;;;0.87;;
1649;SDS011;822;53.670;8.676;2022-09-21T03:42:11;0.83;;;0.83;;
1649;SDS011;822;53.670;8.676;2022-09-21T03:44:38;1.57;;;1.47;;
1649;SDS011;822;53.670;8.676;2022-09-21T03:47:05;0.70;;;0.70;;
1649;SDS011;822;53.670;8.676;2022-09-21T03:49:32;0.87;;;0.87;;
1649;SDS011;822;53.670;8.676;2022-09-21T03:51:59;1.20;;;1.10;;
1649;SDS011;822;53.670;8.676;2022-09-21T03:54:26;0.80;;;0.80;;
1649;SDS011;822;53.670;8.676;2022-09-21T03:56:54;0.60;;;0.60;;
1649;SDS011;822;53.670;8.676;2022-09-21T03:59:21;0.97;;;0.70;;
1649;SDS011;822;53.670;8.676;2022-09-21T04:01:47;0.80;;;0.80;;
1649;SDS011;822;53.670;8.676;2022-09-21T04:04:17;1.40;;;0.77;;
1649;SDS011;822;53.670;8.676;2022-09-21T04:06:44;1.00;;;0.90;;
1649;SDS011;822;53.670;8.676;2022-09-21T04:09:11;0.70;;;0.70;;
1649;SDS011;822;53.670;8.676;2022-09-21T04:11:38;0.77;;;0.77;;
1649;SDS011;822;53.670;8.676;2022-09-21T04:14:06;0.60;;;0.60;;
1649;SDS011;822;53.670;8.676;2022-09-21T04:16:33;1.03;;;1.03;;
1649;SDS011;822;53.670;8.676;2022-09-21T04:19:00;0.97;;;0.97;;
1649;SDS011;822;53.670;8.676;2022-09-21T04:21:26;1.60;;;1.47;;
1649;SDS011;822;53.670;8.676;2022-09-21T04:23:54;0.80;;;0.80;;
1649;SDS011;822;53.670;8.676;2022-09-21T04:26:21;0.50;;;0.50;;
1649;SDS011;822;53.670;8.676;2022-09-21T04:28:49;1.47;;;0.73;;
1649;SDS011;822;53.670;8.676;2022-09-21T04:31:18;0.60;;;0.60;;
1649;SDS011;822;53.670;8.676;2022-09-21T04:33:46;1.30;;;0.93;;
1649;SDS011;822;53.670;8.676;2022-09-21T04:36:13;0.77;;;0.50;;
1649;SDS011;822;53.670;8.676;2022-09-21T04:38:40;0.80;;;0.80;;
1649;SDS011;822;53.670;8.676;2022-09-21T04:41:07;0.70;;;0.70;;
1649;SDS011;822;53.670;8.676;2022-09-21T04:43:34;1.73;;;0.80;;
1649;SDS011;822;53.670;8.676;2022-09-21T04:46:03;0.80;;;0.80;;
1649;SDS011;822;53.670;8.676;2022-09-21T04:48:32;0.70;;;0.70;;
1649;SDS011;822;53.670;8.676;2022-09-21T04:50:59;0.77;;;0.77;;
1649;SDS011;822;53.670;8.676;2022-09-21T04:53:26;0.50;;;0.50;;
1649;SDS011;822;53.670;8.676;2022-09-21T04:55:53;0.80;;;0.80;;
1649;SDS011;822;53.670;8.676;2022-09-21T04:58:20;0.70;;;0.70;;
1649;SDS011;822;53.670;8.676;2022-09-21T05:00:47;1.43;;;1.30;;
1649;SDS011;822;53.670;8.676;2022-09-21T05:03:15;1.47;;;1.37;;
1649;SDS011;822;53.670;8.676;2022-09-21T05:05:46;1.23;;;1.13;;
1649;SDS011;822;53.670;8.676;2022-09-21T05:08:13;0.93;;;0.60;;
1649;SDS011;822;53.670;8.676;2022-09-21T05:10:40;1.07;;;1.00;;
1649;SDS011;822;53.670;8.676;2022-09-21T05:13:07;0.80;;;0.80;;
1649;SDS011;822;53.670;8.676;2022-09-21T05:15:35;0.70;;;0.70;;
1649;SDS011;822;53.670;8.676;2022-09-21T05:18:02;0.70;;;0.70;;
1649;SDS011;822;53.670;8.676;2022-09-21T05:20:29;0.80;;;0.80;;
1649;SDS011;822;53.670;8.676;2022-09-21T05:22:59;1.17;;;0.83;;
1649;SDS011;822;53.670;8.676;2022-09-21T05:25:27;1.07;;;1.00;;
1649;SDS011;822;53.670;8.676;2022-09-21T05:27:53;0.70;;;0.70;;
1649;SDS011;822;53.670;8.676;2022-09-21T05:30:21;0.93;;;0.93;;
1649;SDS011;822;53.670;8.676;2022-09-21T05:32:51;1.20;;;1.10;;
1649;SDS011;822;53.670;8.676;2022-09-21T05:35:23;0.73;;;0.73;;
1649;SDS011;822;53.670;8.676;2022-09-21T05:37:54;0.93;;;0.70;;
1649;SDS011;822;53.670;8.676;2022-09-21T05:40:24;1.07;;;1.07;;
1649;SDS011;822;53.670;8.676;2022-09-21T05:42:51;1.10;;;1.07;;
1649;SDS011;822;53.670;8.676;2022-09-21T05:45:19;0.80;;;0.80;;
1649;SDS011;822;53.670;8.676;2022-09-21T05:47:50;0.90;;;0.90;;
1649;SDS011;822;53.670;8.676;2022-09-21T05:50:24;0.77;;;0.77;;
1649;SDS011;822;53.670;8.676;2022-09-21T05:52:59;1.20;;;1.10;;
1649;SDS011;822;53.670;8.676;2022-09-21T05:55:33;0.73;;;0.73;;
1649;SDS011;822;53.670;8.676;2022-09-21T05:58:09;0.70;;;0.60;;
1649;SDS011;822;53.670;8.676;2022-09-21T06:00:42;1.23;;;1.03;;
1649;SDS011;822;53.670;8.676;2022-09-21T06:03:26;0.97;;;0.97;;
1649;SDS011;822;53.670;8.676;2022-09-21T06:05:54;1.37;;;1.27;;
1649;SDS011;822;53.670;8.676;2022-09-21T06:08:21;1.53;;;0.97;;
1649;SDS011;822;53.670;8.676;2022-09-21T06:10:51;0.73;;;0.60;;
1649;SDS011;822;53.670;8.676;2022-09-21T06:13:18;1.50;;;1.40;;
1649;SDS011;822;53.670;8.676;2022-09-21T06:15:45;1.17;;;1.17;;
1649;SDS011;822;53.670;8.676;2022-09-21T06:18:12;0.97;;;0.97;;
1649;SDS011;822;53.670;8.676;2022-09-21T06:20:39;0.87;;;0.87;;
1649;SDS011;822;53.670;8.676;2022-09-21T06:23:06;1.23;;;1.13;;
1649;SDS011;822;53.670;8.676;2022-09-21T06:25:34;0.97;;;0.97;;
1649;SDS011;822;53.670;8.676;2022-09-21T06:28:03;1.27;;;1.17;;
1649;SDS011;822;53.670;8.676;2022-09-21T06:30:31;0.77;;;0.77;;
1649;SDS011;822;53.670;8.676;2022-09-21T06:32:59;2.10;;;1.30;;
1649;SDS011;822;53.670;8.676;2022-09-21T06:35:26;1.57;;;1.47;;
1649;SDS011;822;53.670;8.676;2022-09-21T06:37:57;1.20;;;1.20;;
1649;SDS011;822;53.670;8.676;2022-09-21T06:40:24;1.77;;;1.67;;
1649;SDS011;822;53.670;8.676;2022-09-21T06:42:54;1.53;;;1.43;;
1649;SDS011;822;53.670;8.676;2022-09-21T06:45:23;0.73;;;0.73;;
1649;SDS011;822;53.670;8.676;2022-09-21T06:47:50;1.03;;;1.03;;
1649;SDS011;822;53.670;8.676;2022-09-21T06:50:17;1.27;;;1.17;;
1649;SDS011;822;53.670;8.676;2022-09-21T06:52:44;1.20;;;1.10;;
1649;SDS011;822;53.670;8.676;2022-09-21T06:55:10;1.20;;;1.20;;
1649;SDS011;822;53.670;8.676;2022-09-21T06:57:37;1.17;;;1.07;;
1649;SDS011;822;53.670;8.676;2022-09-21T07:00:05;0.67;;;0.63;;
1649;SDS011;822;53.670;8.676;2022-09-21T07:02:34;3.67;;;1.57;;
1649;SDS011;822;53.670;8.676;2022-09-21T07:05:01;1.07;;;1.00;;
1649;SDS011;822;53.670;8.676;2022-09-21T07:07:28;1.13;;;1.00;;
1649;SDS011;822;53.670;8.676;2022-09-21T07:09:55;1.50;;;1.40;;
1649;SDS011;822;53.670;8.676;2022-09-21T07:12:23;1.80;;;1.50;;
1649;SDS011;822;53.670;8.676;2022-09-21T07:14:50;1.33;;;1.10;;
1649;SDS011;822;53.670;8.676;2022-09-21T07:17:17;0.77;;;0.77;;
1649;SDS011;822;53.670;8.676;2022-09-21T07:19:48;1.10;;;1.10;;
1649;SDS011;822;53.670;8.676;2022-09-21T07:22:15;1.33;;;1.23;;
1649;SDS011;822;53.670;8.676;2022-09-21T07:24:42;1.03;;;0.80;;
1649;SDS011;822;53.670;8.676;2022-09-21T07:27:08;1.70;;;1.60;;
1649;SDS011;822;53.670;8.676;2022-09-21T07:29:35;1.33;;;1.23;;
1649;SDS011;822;53.670;8.676;2022-09-21T07:32:02;1.50;;;1.40;;
1649;SDS011;822;53.670;8.676;2022-09-21T07:34:33;1.07;;;1.07;;
1649;SDS011;822;53.670;8.676;2022-09-21T07:37:02;1.07;;;1.07;;
1649;SDS011;822;53.670;8.676;2022-09-21T07:39:29;1.27;;;1.17;;
1649;SDS011;822;53.670;8.676;2022-09-21T07:41:55;1.00;;;0.97;;
1649;SDS011;822;53.670;8.676;2022-09-21T07:44:23;0.70;;;0.67;;
1649;SDS011;822;53.670;8.676;2022-09-21T07:46:50;0.93;;;0.80;;
1649;SDS011;822;53.670;8.676;2022-09-21T07:49:17;2.27;;;1.10;;
1649;SDS011;822;53.670;8.676;2022-09-21T07:51:44;1.00;;;1.00;;
1649;SDS011;822;53.670;8.676;2022-09-21T07:54:12;1.70;;;1.30;;
1649;SDS011;822;53.670;8.676;2022-09-21T07:56:40;0.97;;;0.93;;
1649;SDS011;822;53.670;8.676;2022-09-21T07:59:30;1.10;;;1.00;;
1649;SDS011;822;53.670;8.676;2022-09-21T08:01:57;1.03;;;1.03;;
1649;SDS011;822;53.670;8.676;2022-09-21T08:04:24;0.90;;;0.90;;
1649;SDS011;822;53.670;8.676;2022-09-21T08:06:50;1.00;;;0.90;;
1649;SDS011;822;53.670;8.676;2022-09-21T08:09:18;0.87;;;0.87;;
1649;SDS011;822;53.670;8.676;2022-09-21T08:11:45;0.90;;;0.90;;
1649;SDS011;822;53.670;8.676;2022-09-21T08:14:12;0.80;;;0.80;;
1649;SDS011;822;53.670;8.676;2022-09-21T08:16:43;1.70;;;1.07;;
1649;SDS011;822;53.670;8.676;2022-09-21T08:19:11;0.70;;;0.70;;
1649;SDS011;822;53.670;8.676;2022-09-21T08:21:38;1.17;;;0.77;;
1649;SDS011;822;53.670;8.676;2022-09-21T08:24:04;1.00;;;0.70;;
1649;SDS011;822;53.670;8.676;2022-09-21T08:26:33;0.60;;;0.60;;
1649;SDS011;822;53.670;8.676;2022-09-21T08:29:00;0.70;;;0.70;;
1649;SDS011;822;53.670;8.676;2022-09-21T08:31:27;0.60;;;0.60;;
1649;SDS011;822;53.670;8.676;2022-09-21T08:33:55;0.70;;;0.70;;
1649;SDS011;822;53.670;8.676;2022-09-21T08:36:22;0.47;;;0.47;;
1649;SDS011;822;53.670;8.676;2022-09-21T08:38:49;0.47;;;0.47;;
1649;SDS011;822;53.670;8.676;2022-09-21T08:41:16;0.53;;;0.50;;
1649;SDS011;822;53.670;8.676;2022-09-21T08:43:47;1.17;;;0.50;;
1649;SDS011;822;53.670;8.676;2022-09-21T08:46:19;0.50;;;0.40;;
1649;SDS011;822;53.670;8.676;2022-09-21T08:48:47;0.50;;;0.50;;
1649;SDS011;822;53.670;8.676;2022-09-21T08:51:16;0.60;;;0.50;;
1649;SDS011;822;53.670;8.676;2022-09-21T08:53:50;0.40;;;0.30;;
1649;SDS011;822;53.670;8.676;2022-09-21T08:56:19;0.50;;;0.40;;
1649;SDS011;822;53.670;8.676;2022-09-21T08:58:48;0.40;;;0.20;;
1649;SDS011;822;53.670;8.676;2022-09-21T09:01:24;0.87;;;0.30;;
1649;SDS011;822;53.670;8.676;2022-09-21T09:04:14;0.40;;;0.30;;
1649;SDS011;822;53.670;8.676;2022-09-21T09:06:49;0.50;;;0.30;;
1649;SDS011;822;53.670;8.676;2022-09-21T09:09:33;0.40;;;0.30;;
1649;SDS011;822;53.670;8.676;2022-09-21T09:12:13;0.90;;;0.40;;
1649;SDS011;822;53.670;8.676;2022-09-21T09:15:00;0.40;;;0.30;;
1649;SDS011;822;53.670;8.676;2022-09-21T09:17:37;0.67;;;0.27;;
1649;SDS011;822;53.670;8.676;2022-09-21T09:20:09;0.80;;;0.30;;
1649;SDS011;822;53.670;8.676;2022-09-21T09:22:41;0.50;;;0.30;;
1649;SDS011;822;53.670;8.676;2022-09-21T09:25:14;0.40;;;0.20;;
1649;SDS011;822;53.670;8.676;2022-09-21T09:27:43;0.70;;;0.30;;
1649;SDS011;822;53.670;8.676;2022-09-21T09:30:17;0.80;;;0.30;;
1649;SDS011;822;53.670;8.676;2022-09-21T09:32:46;0.40;;;0.30;;
1649;SDS011;822;53.670;8.676;2022-09-21T09:35:21;0.40;;;0.30;;
1649;SDS011;822;53.670;8.676;2022-09-21T09:37:54;0.53;;;0.40;;
1649;SDS011;822;53.670;8.676;2022-09-21T09:40:30;0.50;;;0.30;;
1649;SDS011;822;53.670;8.676;2022-09-21T09:43:06;0.40;;;0.20;;
1649;SDS011;822;53.670;8.676;2022-09-21T09:45:40;0.40;;;0.23;;
1649;SDS011;822;53.670;8.676;2022-09-21T09:48:21;0.40;;;0.30;;
1649;SDS011;822;53.670;8.676;2022-09-21T09:50:53;0.40;;;0.30;;
1649;SDS011;822;53.670;8.676;2022-09-21T09:53:20;0.50;;;0.40;;
1649;SDS011;822;53.670;8.676;2022-09-21T09:55:49;0.40;;;0.30;;
1649;SDS011;822;53.670;8.676;2022-09-21T09:58:17;0.67;;;0.30;;
1649;SDS011;822;53.670;8.676;2022-09-21T10:00:48;0.40;;;0.20;;
1649;SDS011;822;53.670;8.676;2022-09-21T10:03:17;0.50;;;0.30;;
1649;SDS011;822;53.670;8.676;2022-09-21T10:05:45;0.87;;;0.30;;
1649;SDS011;822;53.670;8.676;2022-09-21T10:08:26;0.40;;;0.30;;
1649;SDS011;822;53.670;8.676;2022-09-21T10:10:54;0.40;;;0.30;;
1649;SDS011;822;53.670;8.676;2022-09-21T10:13:24;0.40;;;0.20;;
1649;SDS011;822;53.670;8.676;2022-09-21T10:15:54;0.40;;;0.30;;
1649;SDS011;822;53.670;8.676;2022-09-21T10:18:23;0.40;;;0.30;;
1649;SDS011;822;53.670;8.676;2022-09-21T10:20:53;0.40;;;0.30;;
1649;SDS011;822;53.670;8.676;2022-09-21T10:23:21;0.40;;;0.30;;
1649;SDS011;822;53.670;8.676;2022-09-21T10:25:52;0.40;;;0.20;;
1649;SDS011;822;53.670;8.676;2022-09-21T10:28:23;0.40;;;0.20;;
1649;SDS011;822;53.670;8.676;2022-09-21T10:33:47;0.40;;;0.30;;
1649;SDS011;822;53.670;8.676;2022-09-21T10:36:24;0.40;;;0.30;;
1649;SDS011;822;53.670;8.676;2022-09-21T10:38:53;0.40;;;0.30;;
1649;SDS011;822;53.670;8.676;2022-09-21T10:41:19;0.40;;;0.30;;
1649;SDS011;822;53.670;8.676;2022-09-21T10:43:46;0.50;;;0.30;;
1649;SDS011;822;53.670;8.676;2022-09-21T10:46:14;0.40;;;0.20;;
1649;SDS011;822;53.670;8.676;2022-09-21T10:48:44;0.60;;;0.30;;
1649;SDS011;822;53.670;8.676;2022-09-21T10:51:19;0.40;;;0.30;;
1649;SDS011;822;53.670;8.676;2022-09-21T10:53:51;0.50;;;0.30;;
1649;SDS011;822;53.670;8.676;2022-09-21T10:56:18;0.40;;;0.23;;
1649;SDS011;822;53.670;8.676;2022-09-21T11:01:35;0.40;;;0.30;;
1649;SDS011;822;53.670;8.676;2022-09-21T11:04:04;0.40;;;0.30;;
1649;SDS011;822;53.670;8.676;2022-09-21T11:06:32;0.40;;;0.30;;
1649;SDS011;822;53.670;8.676;2022-09-21T11:09:02;0.40;;;0.20;;
1649;SDS011;822;53.670;8.676;2022-09-21T11:11:38;0.40;;;0.30;;
1649;SDS011;822;53.670;8.676;2022-09-21T11:14:11;0.40;;;0.30;;
1649;SDS011;822;53.670;8.676;2022-09-21T11:16:46;0.70;;;0.30;;
1649;SDS011;822;53.670;8.676;2022-09-21T11:19:19;0.40;;;0.30;;
1649;SDS011;822;53.670;8.676;2022-09-21T11:21:51;0.40;;;0.20;;
1649;SDS011;822;53.670;8.676;2022-09-21T11:24:22;0.50;;;0.30;;
1649;SDS011;822;53.670;8.676;2022-09-21T11:26:55;0.40;;;0.20;;
1649;SDS011;822;53.670;8.676;2022-09-21T11:29:26;0.40;;;0.30;;
1649;SDS011;822;53.670;8.676;2022-09-21T11:32:03;0.50;;;0.30;;
1649;SDS011;822;53.670;8.676;2022-09-21T11:34:46;0.50;;;0.40;;
1649;SDS011;822;53.670;8.676;2022-09-21T11:37:26;0.50;;;0.30;;
1649;SDS011;822;53.670;8.676;2022-09-21T11:40:13;1.33;;;0.40;;
1649;SDS011;822;53.670;8.676;2022-09-21T11:42:54;0.43;;;0.30;;
1649;SDS011;822;53.670;8.676;2022-09-21T11:45:44;0.40;;;0.20;;
1649;SDS011;822;53.670;8.676;2022-09-21T11:48:18;0.40;;;0.30;;
1649;SDS011;822;53.670;8.676;2022-09-21T11:50:54;0.40;;;0.30;;
1649;SDS011;822;53.670;8.676;2022-09-21T11:53:41;0.50;;;0.30;;
1649;SDS011;822;53.670;8.676;2022-09-21T11:56:24;0.60;;;0.30;;
1649;SDS011;822;53.670;8.676;2022-09-21T11:59:13;0.40;;;0.30;;
1649;SDS011;822;53.670;8.676;2022-09-21T12:01:53;0.40;;;0.30;;
1649;SDS011;822;53.670;8.676;2022-09-21T12:04:36;0.40;;;0.30;;
1649;SDS011;822;53.670;8.676;2022-09-21T12:07:15;0.40;;;0.27;;
1649;SDS011;822;53.670;8.676;2022-09-21T12:10:29;0.50;;;0.30;;
1649;SDS011;822;53.670;8.676;2022-09-21T12:13:11;0.40;;;0.30;;
1649;SDS011;822;53.670;8.676;2022-09-21T12:15:44;0.40;;;0.30;;
1649;SDS011;822;53.670;8.676;2022-09-21T12:18:16;0.53;;;0.30;;
1649;SDS011;822;53.670;8.676;2022-09-21T12:20:51;0.40;;;0.30;;
1649;SDS011;822;53.670;8.676;2022-09-21T12:23:30;0.40;;;0.30;;
1649;SDS011;822;53.670;8.676;2022-09-21T12:26:03;0.40;;;0.30;;
1649;SDS011;822;53.670;8.676;2022-09-21T12:28:33;0.50;;;0.30;;
1649;SDS011;822;53.670;8.676;2022-09-21T12:31:03;0.40;;;0.30;;
1649;SDS011;822;53.670;8.676;2022-09-21T12:33:34;0.40;;;0.40;;
1649;SDS011;822;53.670;8.676;2022-09-21T12:36:06;0.77;;;0.30;;
1649;SDS011;822;53.670;8.676;2022-09-21T12:38:38;0.40;;;0.30;;
1649;SDS011;822;53.670;8.676;2022-09-21T12:41:08;0.40;;;0.20;;
1649;SDS011;822;53.670;8.676;2022-09-21T12:43:40;0.40;;;0.30;;
1649;SDS011;822;53.670;8.676;2022-09-21T12:46:10;0.40;;;0.30;;
1649;SDS011;822;53.670;8.676;2022-09-21T12:48:39;0.60;;;0.30;;
1649;SDS011;822;53.670;8.676;2022-09-21T12:51:09;0.40;;;0.27;;
1649;SDS011;822;53.670;8.676;2022-09-21T12:53:42;0.47;;;0.30;;
1649;SDS011;822;53.670;8.676;2022-09-21T12:56:14;0.40;;;0.30;;
1649;SDS011;822;53.670;8.676;2022-09-21T12:59:04;0.40;;;0.20;;
1649;SDS011;822;53.670;8.676;2022-09-21T13:01:38;1.93;;;0.40;;
1649;SDS011;822;53.670;8.676;2022-09-21T13:04:16;0.70;;;0.30;;
1649;SDS011;822;53.670;8.676;2022-09-21T13:07:02;0.40;;;0.30;;
1649;SDS011;822;53.670;8.676;2022-09-21T13:09:50;0.40;;;0.30;;
1649;SDS011;822;53.670;8.676;2022-09-21T13:12:18;0.57;;;0.30;;
1649;SDS011;822;53.670;8.676;2022-09-21T13:14:48;0.40;;;0.30;;
1649;SDS011;822;53.670;8.676;2022-09-21T13:17:19;0.40;;;0.30;;
1649;SDS011;822;53.670;8.676;2022-09-21T13:19:54;0.40;;;0.30;;
1649;SDS011;822;53.670;8.676;2022-09-21T13:22:23;0.50;;;0.50;;
1649;SDS011;822;53.670;8.676;2022-09-21T13:24:59;0.50;;;0.40;;
1649;SDS011;822;53.670;8.676;2022-09-21T13:30:34;0.40;;;0.30;;
1649;SDS011;822;53.670;8.676;2022-09-21T13:33:03;0.60;;;0.30;;
1649;SDS011;822;53.670;8.676;2022-09-21T13:35:50;0.50;;;0.30;;
1649;SDS011;822;53.670;8.676;2022-09-21T13:38:23;0.57;;;0.30;;
1649;SDS011;822;53.670;8.676;2022-09-21T13:40:56;0.50;;;0.30;;
1649;SDS011;822;53.670;8.676;2022-09-21T13:49:20;0.50;;;0.30;;
1649;SDS011;822;53.670;8.676;2022-09-21T13:51:54;0.40;;;0.30;;
1649;SDS011;822;53.670;8.676;2022-09-21T13:54:26;0.40;;;0.30;;
1649;SDS011;822;53.670;8.676;2022-09-21T13:56:57;0.43;;;0.30;;
1649;SDS011;822;53.670;8.676;2022-09-21T13:59:28;0.40;;;0.30;;
1649;SDS011;822;53.670;8.676;2022-09-21T14:01:57;0.50;;;0.30;;
1649;SDS011;822;53.670;8.676;2022-09-21T14:04:25;0.67;;;0.30;;
1649;SDS011;822;53.670;8.676;2022-09-21T14:06:53;0.50;;;0.30;;
1649;SDS011;822;53.670;8.676;2022-09-21T14:09:22;0.60;;;0.30;;
1649;SDS011;822;53.670;8.676;2022-09-21T14:11:52;0.50;;;0.30;;
1649;SDS011;822;53.670;8.676;2022-09-21T14:14:25;0.40;;;0.37;;
1649;SDS011;822;53.670;8.676;2022-09-21T14:16:54;0.40;;;0.30;;
1649;SDS011;822;53.670;8.676;2022-09-21T14:22:36;0.70;;;0.50;;
1649;SDS011;822;53.670;8.676;2022-09-21T14:27:57;0.50;;;0.40;;
1649;SDS011;822;53.670;8.676;2022-09-21T14:30:27;0.40;;;0.30;;
1649;SDS011;822;53.670;8.676;2022-09-21T14:33:01;0.40;;;0.20;;
1649;SDS011;822;53.670;8.676;2022-09-21T14:35:35;0.40;;;0.20;;
1649;SDS011;822;53.670;8.676;2022-09-21T14:38:03;2.63;;;1.20;;
1649;SDS011;822;53.670;8.676;2022-09-21T14:40:33;0.40;;;0.30;;
1649;SDS011;822;53.670;8.676;2022-09-21T14:43:05;0.57;;;0.30;;
1649;SDS011;822;53.670;8.676;2022-09-21T14:45:39;0.40;;;0.20;;
1649;SDS011;822;53.670;8.676;2022-09-21T14:48:07;2.53;;;0.30;;
1649;SDS011;822;53.670;8.676;2022-09-21T14:50:38;0.50;;;0.30;;
1649;SDS011;822;53.670;8.676;2022-09-21T14:53:24;0.40;;;0.30;;
1649;SDS011;822;53.670;8.676;2022-09-21T14:56:07;0.40;;;0.20;;
1649;SDS011;822;53.670;8.676;2022-09-21T14:58:43;0.40;;;0.30;;
1649;SDS011;822;53.670;8.676;2022-09-21T15:01:19;0.50;;;0.40;;
1649;SDS011;822;53.670;8.676;2022-09-21T15:03:54;0.57;;;0.40;;
1649;SDS011;822;53.670;8.676;2022-09-21T15:06:26;0.47;;;0.30;;
1649;SDS011;822;53.670;8.676;2022-09-21T15:12:17;0.70;;;0.40;;
1649;SDS011;822;53.670;8.676;2022-09-21T15:14:45;0.60;;;0.40;;
1649;SDS011;822;53.670;8.676;2022-09-21T15:17:23;0.50;;;0.47;;
1649;SDS011;822;53.670;8.676;2022-09-21T15:19:50;0.50;;;0.30;;
1649;SDS011;822;53.670;8.676;2022-09-21T15:22:18;0.43;;;0.37;;
1649;SDS011;822;53.670;8.676;2022-09-21T15:24:49;0.40;;;0.30;;
1649;SDS011;822;53.670;8.676;2022-09-21T15:27:16;0.40;;;0.30;;
1649;SDS011;822;53.670;8.676;2022-09-21T15:29:43;0.40;;;0.30;;
1649;SDS011;822;53.670;8.676;2022-09-21T15:32:15;2.83;;;0.40;;
1649;SDS011;822;53.670;8.676;2022-09-21T15:34:57;0.40;;;0.30;;
1649;SDS011;822;53.670;8.676;2022-09-21T15:37:26;0.40;;;0.40;;
1649;SDS011;822;53.670;8.676;2022-09-21T15:39:58;0.60;;;0.43;;
1649;SDS011;822;53.670;8.676;2022-09-21T15:42:26;0.40;;;0.40;;
1649;SDS011;822;53.670;8.676;2022-09-21T15:45:00;0.40;;;0.30;;
1649;SDS011;822;53.670;8.676;2022-09-21T15:47:37;0.60;;;0.40;;
1649;SDS011;822;53.670;8.676;2022-09-21T15:50:10;0.40;;;0.30;;
1649;SDS011;822;53.670;8.676;2022-09-21T15:52:38;0.50;;;0.50;;
1649;SDS011;822;53.670;8.676;2022-09-21T15:55:08;0.60;;;0.40;;
1649;SDS011;822;53.670;8.676;2022-09-21T15:57:39;0.40;;;0.30;;
1649;SDS011;822;53.670;8.676;2022-09-21T16:00:16;0.40;;;0.40;;
1649;SDS011;822;53.670;8.676;2022-09-21T16:02:54;0.40;;;0.30;;
1649;SDS011;822;53.670;8.676;2022-09-21T16:05:30;0.40;;;0.40;;
1649;SDS011;822;53.670;8.676;2022-09-21T16:08:05;0.40;;;0.30;;
1649;SDS011;822;53.670;8.676;2022-09-21T16:10:35;0.77;;;0.40;;
1649;SDS011;822;53.670;8.676;2022-09-21T16:13:09;0.60;;;0.37;;
1649;SDS011;822;53.670;8.676;2022-09-21T16:15:59;0.40;;;0.30;;
1649;SDS011;822;53.670;8.676;2022-09-21T16:18:32;0.40;;;0.30;;
1649;SDS011;822;53.670;8.676;2022-09-21T16:21:21;0.40;;;0.30;;
1649;SDS011;822;53.670;8.676;2022-09-21T16:23:52;0.80;;;0.40;;